sensor_id;sensor_type;location;lat;lon;timestamp;temperature;humidity
46356;DHT22;32066;49.474;11.106;2023-08-08T00:00:12;14.50;99.90
46356;DHT22;32066;49.474;11.106;2023-08-08T00:02:41;14.50;99.90
46356;DHT22;32066;49.474;11.106;2023-08-08T00:05:09;14.40;99.90
46356;DHT22;32066;49.474;11.106;2023-08-08T00:07:38;14.50;99.90
46356;DHT22;32066;49.474;11.106;2023-08-08T00:10:07;14.40;99.90
46356;DHT22;32066;49.474;11.106;2023-08-08T00:12:36;14.50;99.90
46356;DHT22;32066;49.474;11.106;2023-08-08T00:15:08;14.50;99.90
46356;DHT22;32066;49.474;11.106;2023-08-08T00:17:37;14.50;99.90
46356;DHT22;32066;49.474;11.106;2023-08-08T00:20:07;14.50;99.90
46356;DHT22;32066;49.474;11.106;2023-08-08T00:22:38;14.40;99.90
46356;DHT22;32066;49.474;11.106;2023-08-08T00:25:08;14.40;99.90
46356;DHT22;32066;49.474;11.106;2023-08-08T00:27:38;14.40;99.90
46356;DHT22;32066;49.474;11.106;2023-08-08T00:30:13;14.40;99.90
46356;DHT22;32066;49.474;11.106;2023-08-08T00:32:42;14.30;99.90
46356;DHT22;32066;49.474;11.106;2023-08-08T00:35:11;14.30;99.90
46356;DHT22;32066;49.474;11.106;2023-08-08T00:37:40;14.30;99.90
46356;DHT22;32066;49.474;11.106;2023-08-08T00:40:09;14.40;99.90
46356;DHT22;32066;49.474;11.106;2023-08-08T00:42:38;14.30;99.90
46356;DHT22;32066;49.474;11.106;2023-08-08T00:45:08;14.40;99.90
46356;DHT22;32066;49.474;11.106;2023-08-08T00:47:39;14.40;99.90
46356;DHT22;32066;49.474;11.106;2023-08-08T00:50:09;14.40;99.90
46356;DHT22;32066;49.474;11.106;2023-08-08T00:52:40;14.40;99.90
46356;DHT22;32066;49.474;11.106;2023-08-08T00:55:10;14.40;99.90
46356;DHT22;32066;49.474;11.106;2023-08-08T00:57:40;14.40;99.90
46356;DHT22;32066;49.474;11.106;2023-08-08T01:00:09;14.40;99.90
46356;DHT22;32066;49.474;11.106;2023-08-08T01:02:41;14.40;99.90
46356;DHT22;32066;49.474;11.106;2023-08-08T01:05:10;14.40;99.90
46356;DHT22;32066;49.474;11.106;2023-08-08T01:07:47;14.40;99.90
46356;DHT22;32066;49.474;11.106;2023-08-08T01:10:20;14.50;99.90
46356;DHT22;32066;49.474;11.106;2023-08-08T01:12:54;14.40;99.90
46356;DHT22;32066;49.474;11.106;2023-08-08T01:15:26;14.50;99.90
46356;DHT22;32066;49.474;11.106;2023-08-08T01:18:00;14.50;99.90
46356;DHT22;32066;49.474;11.106;2023-08-08T01:20:30;14.50;99.90
46356;DHT22;32066;49.474;11.106;2023-08-08T01:23:10;14.50;99.90
46356;DHT22;32066;49.474;11.106;2023-08-08T01:25:42;14.50;99.90
46356;DHT22;32066;49.474;11.106;2023-08-08T01:28:12;14.50;99.90
46356;DHT22;32066;49.474;11.106;2023-08-08T01:30:41;14.60;99.90
46356;DHT22;32066;49.474;11.106;2023-08-08T01:33:09;14.50;99.90
46356;DHT22;32066;49.474;11.106;2023-08-08T01:35:39;14.60;99.90
46356;DHT22;32066;49.474;11.106;2023-08-08T01:38:13;14.60;99.90
46356;DHT22;32066;49.474;11.106;2023-08-08T01:40:47;14.60;99.90
46356;DHT22;32066;49.474;11.106;2023-08-08T01:43:18;14.60;99.90
46356;DHT22;32066;49.474;11.106;2023-08-08T01:45:47;14.60;99.90
46356;DHT22;32066;49.474;11.106;2023-08-08T01:48:16;14.60;99.90
46356;DHT22;32066;49.474;11.106;2023-08-08T01:50:44;14.60;99.90
46356;DHT22;32066;49.474;11.106;2023-08-08T01:53:13;14.70;99.90
46356;DHT22;32066;49.474;11.106;2023-08-08T01:55:45;14.60;99.90
46356;DHT22;32066;49.474;11.106;2023-08-08T01:58:14;14.70;99.90
46356;DHT22;32066;49.474;11.106;2023-08-08T02:00:42;14.70;99.90
46356;DHT22;32066;49.474;11.106;2023-08-08T02:03:15;14.70;99.90
46356;DHT22;32066;49.474;11.106;2023-08-08T02:05:44;14.70;99.90
46356;DHT22;32066;49.474;11.106;2023-08-08T02:08:12;14.70;99.90
46356;DHT22;32066;49.474;11.106;2023-08-08T02:10:41;14.80;99.90
46356;DHT22;32066;49.474;11.106;2023-08-08T02:13:12;14.80;99.90
46356;DHT22;32066;49.474;11.106;2023-08-08T02:15:41;14.80;99.90
46356;DHT22;32066;49.474;11.106;2023-08-08T02:18:10;14.80;99.90
46356;DHT22;32066;49.474;11.106;2023-08-08T02:20:39;14.80;99.90
46356;DHT22;32066;49.474;11.106;2023-08-08T02:23:08;14.80;99.90
46356;DHT22;32066;49.474;11.106;2023-08-08T02:25:37;14.80;99.90
46356;DHT22;32066;49.474;11.106;2023-08-08T02:28:05;14.80;99.90
46356;DHT22;32066;49.474;11.106;2023-08-08T02:30:38;14.80;99.90
46356;DHT22;32066;49.474;11.106;2023-08-08T02:33:09;14.80;99.70
46356;DHT22;32066;49.474;11.106;2023-08-08T02:35:38;14.80;99.60
46356;DHT22;32066;49.474;11.106;2023-08-08T02:38:07;14.80;99.80
46356;DHT22;32066;49.474;11.106;2023-08-08T02:40:35;14.80;99.40
46356;DHT22;32066;49.474;11.106;2023-08-08T02:43:04;14.80;99.60
46356;DHT22;32066;49.474;11.106;2023-08-08T02:45:37;14.80;99.50
46356;DHT22;32066;49.474;11.106;2023-08-08T02:48:06;14.80;99.60
46356;DHT22;32066;49.474;11.106;2023-08-08T02:50:35;14.80;99.40
46356;DHT22;32066;49.474;11.106;2023-08-08T02:53:04;14.80;99.40
46356;DHT22;32066;49.474;11.106;2023-08-08T02:55:37;14.80;99.30
46356;DHT22;32066;49.474;11.106;2023-08-08T02:58:06;14.70;99.50
46356;DHT22;32066;49.474;11.106;2023-08-08T03:00:38;14.80;99.50
46356;DHT22;32066;49.474;11.106;2023-08-08T03:03:22;14.80;99.40
46356;DHT22;32066;49.474;11.106;2023-08-08T03:05:53;14.90;99.20
46356;DHT22;32066;49.474;11.106;2023-08-08T03:08:26;14.80;99.60
46356;DHT22;32066;49.474;11.106;2023-08-08T03:10:57;14.70;99.40
46356;DHT22;32066;49.474;11.106;2023-08-08T03:13:27;14.70;99.70
46356;DHT22;32066;49.474;11.106;2023-08-08T03:15:59;14.60;99.90
46356;DHT22;32066;49.474;11.106;2023-08-08T03:18:27;14.70;99.90
46356;DHT22;32066;49.474;11.106;2023-08-08T03:20:56;14.50;99.90
46356;DHT22;32066;49.474;11.106;2023-08-08T03:23:27;14.60;99.90
46356;DHT22;32066;49.474;11.106;2023-08-08T03:25:56;14.50;99.90
46356;DHT22;32066;49.474;11.106;2023-08-08T03:28:26;14.60;99.90
46356;DHT22;32066;49.474;11.106;2023-08-08T03:30:58;14.50;99.90
46356;DHT22;32066;49.474;11.106;2023-08-08T03:33:29;14.60;99.90
46356;DHT22;32066;49.474;11.106;2023-08-08T03:35:59;14.50;99.90
46356;DHT22;32066;49.474;11.106;2023-08-08T03:38:28;14.50;99.90
46356;DHT22;32066;49.474;11.106;2023-08-08T03:40:57;14.60;99.90
46356;DHT22;32066;49.474;11.106;2023-08-08T03:43:26;14.60;99.90
46356;DHT22;32066;49.474;11.106;2023-08-08T03:45:54;14.60;99.90
46356;DHT22;32066;49.474;11.106;2023-08-08T03:48:26;14.60;99.90
46356;DHT22;32066;49.474;11.106;2023-08-08T03:50:55;14.60;99.90
46356;DHT22;32066;49.474;11.106;2023-08-08T03:53:24;14.60;99.90
46356;DHT22;32066;49.474;11.106;2023-08-08T03:55:52;14.70;99.90
46356;DHT22;32066;49.474;11.106;2023-08-08T03:58:21;14.60;99.90
46356;DHT22;32066;49.474;11.106;2023-08-08T04:00:50;14.60;99.90
46356;DHT22;32066;49.474;11.106;2023-08-08T04:03:18;14.60;99.90
46356;DHT22;32066;49.474;11.106;2023-08-08T04:05:50;14.50;99.90
46356;DHT22;32066;49.474;11.106;2023-08-08T04:08:19;14.60;99.90
46356;DHT22;32066;49.474;11.106;2023-08-08T04:10:48;14.60;99.90
46356;DHT22;32066;49.474;11.106;2023-08-08T04:13:16;14.60;99.90
46356;DHT22;32066;49.474;11.106;2023-08-08T04:15:45;14.60;99.90
46356;DHT22;32066;49.474;11.106;2023-08-08T04:18:14;14.50;99.90
46356;DHT22;32066;49.474;11.106;2023-08-08T04:20:43;14.50;99.90
46356;DHT22;32066;49.474;11.106;2023-08-08T04:23:14;14.50;99.90
46356;DHT22;32066;49.474;11.106;2023-08-08T04:25:42;14.50;99.90
46356;DHT22;32066;49.474;11.106;2023-08-08T04:28:11;14.50;99.90
46356;DHT22;32066;49.474;11.106;2023-08-08T04:30:39;14.50;99.90
46356;DHT22;32066;49.474;11.106;2023-08-08T04:33:08;14.40;99.90
46356;DHT22;32066;49.474;11.106;2023-08-08T04:35:37;14.40;99.90
46356;DHT22;32066;49.474;11.106;2023-08-08T04:38:05;14.40;99.90
46356;DHT22;32066;49.474;11.106;2023-08-08T04:40:37;14.40;99.90
46356;DHT22;32066;49.474;11.106;2023-08-08T04:43:05;14.50;99.90
46356;DHT22;32066;49.474;11.106;2023-08-08T04:45:34;14.50;99.90
46356;DHT22;32066;49.474;11.106;2023-08-08T04:48:03;14.40;99.90
46356;DHT22;32066;49.474;11.106;2023-08-08T04:50:32;14.50;99.90
46356;DHT22;32066;49.474;11.106;2023-08-08T04:53:01;14.50;99.90
46356;DHT22;32066;49.474;11.106;2023-08-08T04:55:29;14.50;99.90
46356;DHT22;32066;49.474;11.106;2023-08-08T04:58:01;14.40;99.90
46356;DHT22;32066;49.474;11.106;2023-08-08T05:00:29;14.40;99.90
46356;DHT22;32066;49.474;11.106;2023-08-08T05:03:00;14.50;99.90
46356;DHT22;32066;49.474;11.106;2023-08-08T05:05:29;16.20;99.90
46356;DHT22;32066;49.474;11.106;2023-08-08T05:07:58;17.00;99.90
46356;DHT22;32066;49.474;11.106;2023-08-08T05:10:27;16.40;99.90
46356;DHT22;32066;49.474;11.106;2023-08-08T05:12:56;16.00;99.90
46356;DHT22;32066;49.474;11.106;2023-08-08T05:15:28;15.70;99.90
46356;DHT22;32066;49.474;11.106;2023-08-08T05:17:56;15.50;99.90
46356;DHT22;32066;49.474;11.106;2023-08-08T05:20:25;15.40;99.90
46356;DHT22;32066;49.474;11.106;2023-08-08T05:22:54;15.30;99.90
46356;DHT22;32066;49.474;11.106;2023-08-08T05:25:22;15.30;99.90
46356;DHT22;32066;49.474;11.106;2023-08-08T05:27:51;15.20;99.90
46356;DHT22;32066;49.474;11.106;2023-08-08T05:30:21;15.20;99.90
46356;DHT22;32066;49.474;11.106;2023-08-08T05:32:52;15.10;99.90
46356;DHT22;32066;49.474;11.106;2023-08-08T05:35:21;15.10;99.90
46356;DHT22;32066;49.474;11.106;2023-08-08T05:37:50;15.10;99.90
46356;DHT22;32066;49.474;11.106;2023-08-08T05:40:19;15.00;99.90
46356;DHT22;32066;49.474;11.106;2023-08-08T05:42:47;15.10;99.90
46356;DHT22;32066;49.474;11.106;2023-08-08T05:45:16;15.10;99.90
46356;DHT22;32066;49.474;11.106;2023-08-08T05:47:45;15.20;99.90
46356;DHT22;32066;49.474;11.106;2023-08-08T05:50:16;15.10;99.90
46356;DHT22;32066;49.474;11.106;2023-08-08T05:52:45;15.10;99.90
46356;DHT22;32066;49.474;11.106;2023-08-08T05:55:13;15.10;99.90
46356;DHT22;32066;49.474;11.106;2023-08-08T05:57:42;15.10;99.90
46356;DHT22;32066;49.474;11.106;2023-08-08T06:00:12;15.10;99.90
46356;DHT22;32066;49.474;11.106;2023-08-08T06:02:41;15.10;99.90
46356;DHT22;32066;49.474;11.106;2023-08-08T06:05:11;15.20;99.90
46356;DHT22;32066;49.474;11.106;2023-08-08T06:07:42;15.20;99.90
46356;DHT22;32066;49.474;11.106;2023-08-08T06:10:11;15.30;99.90
46356;DHT22;32066;49.474;11.106;2023-08-08T06:12:39;15.30;99.90
46356;DHT22;32066;49.474;11.106;2023-08-08T06:15:08;15.30;99.90
46356;DHT22;32066;49.474;11.106;2023-08-08T06:17:37;15.40;99.90
46356;DHT22;32066;49.474;11.106;2023-08-08T06:20:07;15.50;99.90
46356;DHT22;32066;49.474;11.106;2023-08-08T06:22:37;15.50;99.90
46356;DHT22;32066;49.474;11.106;2023-08-08T06:25:08;15.40;99.90
46356;DHT22;32066;49.474;11.106;2023-08-08T06:27:37;15.30;99.90
46356;DHT22;32066;49.474;11.106;2023-08-08T06:30:07;15.30;99.90
46356;DHT22;32066;49.474;11.106;2023-08-08T06:32:36;15.30;99.90
46356;DHT22;32066;49.474;11.106;2023-08-08T06:35:05;15.30;99.90
46356;DHT22;32066;49.474;11.106;2023-08-08T06:37:34;15.30;99.90
46356;DHT22;32066;49.474;11.106;2023-08-08T06:40:04;15.40;99.90
46356;DHT22;32066;49.474;11.106;2023-08-08T06:42:36;15.40;99.90
46356;DHT22;32066;49.474;11.106;2023-08-08T06:45:07;15.40;99.90
46356;DHT22;32066;49.474;11.106;2023-08-08T06:47:36;15.40;99.90
46356;DHT22;32066;49.474;11.106;2023-08-08T06:50:06;15.40;99.90
46356;DHT22;32066;49.474;11.106;2023-08-08T06:52:35;15.60;99.90
46356;DHT22;32066;49.474;11.106;2023-08-08T06:55:05;15.60;99.90
46356;DHT22;32066;49.474;11.106;2023-08-08T06:57:36;15.70;99.90
46356;DHT22;32066;49.474;11.106;2023-08-08T07:00:06;15.70;99.90
46356;DHT22;32066;49.474;11.106;2023-08-08T07:02:38;15.80;99.90
46356;DHT22;32066;49.474;11.106;2023-08-08T07:05:07;15.80;99.90
46356;DHT22;32066;49.474;11.106;2023-08-08T07:07:36;15.90;99.90
46356;DHT22;32066;49.474;11.106;2023-08-08T07:10:05;15.90;99.90
46356;DHT22;32066;49.474;11.106;2023-08-08T07:12:37;16.00;99.90
46356;DHT22;32066;49.474;11.106;2023-08-08T07:15:07;16.00;99.90
46356;DHT22;32066;49.474;11.106;2023-08-08T07:17:36;16.00;99.90
46356;DHT22;32066;49.474;11.106;2023-08-08T07:20:06;16.10;99.90
46356;DHT22;32066;49.474;11.106;2023-08-08T07:22:39;16.10;99.90
46356;DHT22;32066;49.474;11.106;2023-08-08T07:25:08;16.20;99.90
46356;DHT22;32066;49.474;11.106;2023-08-08T07:27:40;16.20;99.50
46356;DHT22;32066;49.474;11.106;2023-08-08T07:30:09;16.30;99.40
46356;DHT22;32066;49.474;11.106;2023-08-08T07:32:38;16.30;99.20
46356;DHT22;32066;49.474;11.106;2023-08-08T07:35:07;16.30;99.30
46356;DHT22;32066;49.474;11.106;2023-08-08T07:37:36;16.30;99.40
46356;DHT22;32066;49.474;11.106;2023-08-08T07:40:14;16.40;99.50
46356;DHT22;32066;49.474;11.106;2023-08-08T07:42:46;16.50;99.00
46356;DHT22;32066;49.474;11.106;2023-08-08T07:45:15;16.50;99.10
46356;DHT22;32066;49.474;11.106;2023-08-08T07:47:44;16.50;99.10
46356;DHT22;32066;49.474;11.106;2023-08-08T07:50:13;16.50;99.20
46356;DHT22;32066;49.474;11.106;2023-08-08T07:52:42;16.50;99.10
46356;DHT22;32066;49.474;11.106;2023-08-08T07:55:10;16.60;99.10
46356;DHT22;32066;49.474;11.106;2023-08-08T07:57:39;16.60;98.90
46356;DHT22;32066;49.474;11.106;2023-08-08T08:00:11;16.70;98.60
46356;DHT22;32066;49.474;11.106;2023-08-08T08:02:42;16.80;97.90
46356;DHT22;32066;49.474;11.106;2023-08-08T08:05:11;16.80;98.00
46356;DHT22;32066;49.474;11.106;2023-08-08T08:07:40;16.90;98.00
46356;DHT22;32066;49.474;11.106;2023-08-08T08:10:10;16.90;98.10
46356;DHT22;32066;49.474;11.106;2023-08-08T08:12:40;16.90;98.10
46356;DHT22;32066;49.474;11.106;2023-08-08T08:15:12;17.00;98.00
46356;DHT22;32066;49.474;11.106;2023-08-08T08:17:42;17.10;97.80
46356;DHT22;32066;49.474;11.106;2023-08-08T08:20:10;17.20;97.40
46356;DHT22;32066;49.474;11.106;2023-08-08T08:22:40;17.20;97.30
46356;DHT22;32066;49.474;11.106;2023-08-08T08:25:08;17.40;97.10
46356;DHT22;32066;49.474;11.106;2023-08-08T08:27:37;17.40;97.00
46356;DHT22;32066;49.474;11.106;2023-08-08T08:30:07;17.50;96.80
46356;DHT22;32066;49.474;11.106;2023-08-08T08:32:39;17.60;96.10
46356;DHT22;32066;49.474;11.106;2023-08-08T08:35:09;17.60;96.30
46356;DHT22;32066;49.474;11.106;2023-08-08T08:37:38;17.70;96.30
46356;DHT22;32066;49.474;11.106;2023-08-08T08:40:08;17.70;96.00
46356;DHT22;32066;49.474;11.106;2023-08-08T08:42:39;17.80;94.90
46356;DHT22;32066;49.474;11.106;2023-08-08T08:45:09;17.90;94.60
46356;DHT22;32066;49.474;11.106;2023-08-08T08:47:43;18.00;94.30
46356;DHT22;32066;49.474;11.106;2023-08-08T08:50:15;18.10;94.50
46356;DHT22;32066;49.474;11.106;2023-08-08T08:52:44;18.20;94.60
46356;DHT22;32066;49.474;11.106;2023-08-08T08:55:13;18.10;93.90
46356;DHT22;32066;49.474;11.106;2023-08-08T08:57:42;18.00;93.60
46356;DHT22;32066;49.474;11.106;2023-08-08T09:00:13;17.90;93.50
46356;DHT22;32066;49.474;11.106;2023-08-08T09:02:44;17.90;94.00
46356;DHT22;32066;49.474;11.106;2023-08-08T09:05:13;18.00;92.90
46356;DHT22;32066;49.474;11.106;2023-08-08T09:07:43;18.10;93.10
46356;DHT22;32066;49.474;11.106;2023-08-08T09:10:13;18.20;93.10
46356;DHT22;32066;49.474;11.106;2023-08-08T09:12:43;18.30;92.70
46356;DHT22;32066;49.474;11.106;2023-08-08T09:15:13;18.40;92.00
46356;DHT22;32066;49.474;11.106;2023-08-08T09:17:44;18.30;92.00
46356;DHT22;32066;49.474;11.106;2023-08-08T09:20:13;18.40;91.60
46356;DHT22;32066;49.474;11.106;2023-08-08T09:22:42;18.30;91.90
46356;DHT22;32066;49.474;11.106;2023-08-08T09:25:10;18.30;92.30
46356;DHT22;32066;49.474;11.106;2023-08-08T09:27:41;18.30;92.30
46356;DHT22;32066;49.474;11.106;2023-08-08T09:30:11;18.40;92.60
46356;DHT22;32066;49.474;11.106;2023-08-08T09:32:40;18.40;91.00
46356;DHT22;32066;49.474;11.106;2023-08-08T09:35:11;18.40;90.60
46356;DHT22;32066;49.474;11.106;2023-08-08T09:37:40;18.30;90.90
46356;DHT22;32066;49.474;11.106;2023-08-08T09:40:09;18.40;91.20
46356;DHT22;32066;49.474;11.106;2023-08-08T09:42:40;18.50;91.20
46356;DHT22;32066;49.474;11.106;2023-08-08T09:45:10;18.50;90.90
46356;DHT22;32066;49.474;11.106;2023-08-08T09:47:39;18.50;90.60
46356;DHT22;32066;49.474;11.106;2023-08-08T09:50:10;18.60;90.50
46356;DHT22;32066;49.474;11.106;2023-08-08T09:52:39;18.70;90.30
46356;DHT22;32066;49.474;11.106;2023-08-08T09:55:09;18.70;90.50
46356;DHT22;32066;49.474;11.106;2023-08-08T09:57:39;18.70;90.00
46356;DHT22;32066;49.474;11.106;2023-08-08T10:00:10;18.60;90.20
46356;DHT22;32066;49.474;11.106;2023-08-08T10:02:43;18.50;89.70
46356;DHT22;32066;49.474;11.106;2023-08-08T10:05:15;18.50;88.20
46356;DHT22;32066;49.474;11.106;2023-08-08T10:07:44;18.40;87.90
46356;DHT22;32066;49.474;11.106;2023-08-08T10:10:13;18.50;89.10
46356;DHT22;32066;49.474;11.106;2023-08-08T10:12:45;18.60;88.90
46356;DHT22;32066;49.474;11.106;2023-08-08T10:15:13;18.70;89.10
46356;DHT22;32066;49.474;11.106;2023-08-08T10:17:42;18.90;88.70
46356;DHT22;32066;49.474;11.106;2023-08-08T10:20:14;19.00;88.50
46356;DHT22;32066;49.474;11.106;2023-08-08T10:22:47;19.10;87.40
46356;DHT22;32066;49.474;11.106;2023-08-08T10:25:19;19.10;88.00
46356;DHT22;32066;49.474;11.106;2023-08-08T10:28:02;19.10;88.30
46356;DHT22;32066;49.474;11.106;2023-08-08T10:30:42;19.10;87.40
46356;DHT22;32066;49.474;11.106;2023-08-08T10:33:18;19.20;87.90
46356;DHT22;32066;49.474;11.106;2023-08-08T10:36:03;19.10;86.50
46356;DHT22;32066;49.474;11.106;2023-08-08T10:38:40;19.10;86.80
46356;DHT22;32066;49.474;11.106;2023-08-08T10:41:10;19.00;87.00
46356;DHT22;32066;49.474;11.106;2023-08-08T10:43:48;19.10;87.00
46356;DHT22;32066;49.474;11.106;2023-08-08T10:46:23;19.10;85.60
46356;DHT22;32066;49.474;11.106;2023-08-08T10:48:53;19.00;85.10
46356;DHT22;32066;49.474;11.106;2023-08-08T10:51:33;19.00;86.00
46356;DHT22;32066;49.474;11.106;2023-08-08T10:54:04;19.00;85.80
46356;DHT22;32066;49.474;11.106;2023-08-08T10:56:35;19.00;86.10
46356;DHT22;32066;49.474;11.106;2023-08-08T10:59:13;19.00;85.00
46356;DHT22;32066;49.474;11.106;2023-08-08T11:01:45;19.10;84.20
46356;DHT22;32066;49.474;11.106;2023-08-08T11:04:16;19.10;84.00
46356;DHT22;32066;49.474;11.106;2023-08-08T11:06:50;19.10;82.70
46356;DHT22;32066;49.474;11.106;2023-08-08T11:09:19;19.10;82.50
46356;DHT22;32066;49.474;11.106;2023-08-08T11:11:47;19.10;82.80
46356;DHT22;32066;49.474;11.106;2023-08-08T11:14:17;19.20;83.40
46356;DHT22;32066;49.474;11.106;2023-08-08T11:16:48;19.30;84.20
46356;DHT22;32066;49.474;11.106;2023-08-08T11:19:17;19.40;81.00
46356;DHT22;32066;49.474;11.106;2023-08-08T11:21:49;19.60;80.50
46356;DHT22;32066;49.474;11.106;2023-08-08T11:24:17;19.60;80.70
46356;DHT22;32066;49.474;11.106;2023-08-08T11:26:46;19.60;80.20
46356;DHT22;32066;49.474;11.106;2023-08-08T11:29:17;19.60;80.20
46356;DHT22;32066;49.474;11.106;2023-08-08T11:31:48;19.60;81.10
46356;DHT22;32066;49.474;11.106;2023-08-08T11:34:17;19.60;80.80
46356;DHT22;32066;49.474;11.106;2023-08-08T11:36:49;19.70;79.40
46356;DHT22;32066;49.474;11.106;2023-08-08T11:39:17;19.70;80.80
46356;DHT22;32066;49.474;11.106;2023-08-08T11:41:46;19.60;79.30
46356;DHT22;32066;49.474;11.106;2023-08-08T11:44:16;19.70;79.40
46356;DHT22;32066;49.474;11.106;2023-08-08T11:46:44;19.70;80.40
46356;DHT22;32066;49.474;11.106;2023-08-08T11:49:14;19.80;81.10
46356;DHT22;32066;49.474;11.106;2023-08-08T11:51:44;19.80;80.10
46356;DHT22;32066;49.474;11.106;2023-08-08T11:54:15;19.90;79.00
46356;DHT22;32066;49.474;11.106;2023-08-08T11:56:44;20.00;79.40
46356;DHT22;32066;49.474;11.106;2023-08-08T11:59:12;20.10;78.90
46356;DHT22;32066;49.474;11.106;2023-08-08T12:01:41;20.20;79.10
46356;DHT22;32066;49.474;11.106;2023-08-08T12:04:11;20.20;77.90
46356;DHT22;32066;49.474;11.106;2023-08-08T12:06:40;20.30;77.90
46356;DHT22;32066;49.474;11.106;2023-08-08T12:09:11;20.40;78.80
46356;DHT22;32066;49.474;11.106;2023-08-08T12:11:43;20.50;76.30
46356;DHT22;32066;49.474;11.106;2023-08-08T12:14:14;20.60;76.70
46356;DHT22;32066;49.474;11.106;2023-08-08T12:16:43;20.60;76.10
46356;DHT22;32066;49.474;11.106;2023-08-08T12:19:13;20.70;75.90
46356;DHT22;32066;49.474;11.106;2023-08-08T12:21:46;20.80;76.10
46356;DHT22;32066;49.474;11.106;2023-08-08T12:24:15;20.80;75.10
46356;DHT22;32066;49.474;11.106;2023-08-08T12:26:47;20.90;75.60
46356;DHT22;32066;49.474;11.106;2023-08-08T12:29:16;20.90;76.60
46356;DHT22;32066;49.474;11.106;2023-08-08T12:31:44;21.00;75.90
46356;DHT22;32066;49.474;11.106;2023-08-08T12:34:13;21.00;74.60
46356;DHT22;32066;49.474;11.106;2023-08-08T12:36:42;21.10;73.90
46356;DHT22;32066;49.474;11.106;2023-08-08T12:39:10;21.10;73.10
46356;DHT22;32066;49.474;11.106;2023-08-08T12:41:39;21.00;73.20
46356;DHT22;32066;49.474;11.106;2023-08-08T12:44:10;21.10;73.70
46356;DHT22;32066;49.474;11.106;2023-08-08T12:46:39;21.10;73.70
46356;DHT22;32066;49.474;11.106;2023-08-08T12:49:07;21.10;72.80
46356;DHT22;32066;49.474;11.106;2023-08-08T12:51:36;21.10;72.50
46356;DHT22;32066;49.474;11.106;2023-08-08T12:54:05;21.10;72.70
46356;DHT22;32066;49.474;11.106;2023-08-08T12:56:34;21.10;73.40
46356;DHT22;32066;49.474;11.106;2023-08-08T12:59:03;21.30;73.70
46356;DHT22;32066;49.474;11.106;2023-08-08T13:01:34;21.40;73.80
46356;DHT22;32066;49.474;11.106;2023-08-08T13:04:03;21.40;73.90
46356;DHT22;32066;49.474;11.106;2023-08-08T13:06:32;21.50;74.80
46356;DHT22;32066;49.474;11.106;2023-08-08T13:09:01;21.70;75.00
46356;DHT22;32066;49.474;11.106;2023-08-08T13:11:29;21.70;73.60
46356;DHT22;32066;49.474;11.106;2023-08-08T13:13:58;21.80;73.80
46356;DHT22;32066;49.474;11.106;2023-08-08T13:16:27;21.80;72.20
46356;DHT22;32066;49.474;11.106;2023-08-08T13:18:58;21.70;72.00
46356;DHT22;32066;49.474;11.106;2023-08-08T13:21:27;21.70;71.50
46356;DHT22;32066;49.474;11.106;2023-08-08T13:23:56;21.80;71.90
46356;DHT22;32066;49.474;11.106;2023-08-08T13:26:25;21.80;71.70
46356;DHT22;32066;49.474;11.106;2023-08-08T13:28:54;21.80;72.00
46356;DHT22;32066;49.474;11.106;2023-08-08T13:31:22;21.90;71.00
46356;DHT22;32066;49.474;11.106;2023-08-08T13:33:51;21.80;68.80
46356;DHT22;32066;49.474;11.106;2023-08-08T13:36:22;21.70;69.20
46356;DHT22;32066;49.474;11.106;2023-08-08T13:38:51;21.70;67.90
46356;DHT22;32066;49.474;11.106;2023-08-08T13:41:19;21.70;68.20
46356;DHT22;32066;49.474;11.106;2023-08-08T13:43:48;21.60;68.30
46356;DHT22;32066;49.474;11.106;2023-08-08T13:46:17;21.50;68.30
46356;DHT22;32066;49.474;11.106;2023-08-08T13:48:45;21.50;68.50
46356;DHT22;32066;49.474;11.106;2023-08-08T13:51:14;21.50;68.20
46356;DHT22;32066;49.474;11.106;2023-08-08T13:53:46;21.50;66.90
46356;DHT22;32066;49.474;11.106;2023-08-08T13:56:15;21.50;67.90
46356;DHT22;32066;49.474;11.106;2023-08-08T13:58:44;21.50;68.70
46356;DHT22;32066;49.474;11.106;2023-08-08T14:01:12;21.50;68.80
46356;DHT22;32066;49.474;11.106;2023-08-08T14:03:41;21.70;68.90
46356;DHT22;32066;49.474;11.106;2023-08-08T14:06:10;21.70;68.60
46356;DHT22;32066;49.474;11.106;2023-08-08T14:08:38;21.60;68.60
46356;DHT22;32066;49.474;11.106;2023-08-08T14:11:10;21.60;69.00
46356;DHT22;32066;49.474;11.106;2023-08-08T14:13:38;21.60;68.80
46356;DHT22;32066;49.474;11.106;2023-08-08T14:16:07;21.70;68.40
46356;DHT22;32066;49.474;11.106;2023-08-08T14:18:36;21.70;69.10
46356;DHT22;32066;49.474;11.106;2023-08-08T14:21:04;21.70;69.60
46356;DHT22;32066;49.474;11.106;2023-08-08T14:23:33;21.70;69.90
46356;DHT22;32066;49.474;11.106;2023-08-08T14:26:02;21.70;69.80
46356;DHT22;32066;49.474;11.106;2023-08-08T14:28:34;21.60;69.30
46356;DHT22;32066;49.474;11.106;2023-08-08T14:31:02;21.80;69.10
46356;DHT22;32066;49.474;11.106;2023-08-08T14:33:31;21.80;68.80
46356;DHT22;32066;49.474;11.106;2023-08-08T14:36:00;21.80;68.80
46356;DHT22;32066;49.474;11.106;2023-08-08T14:38:35;22.00;68.70
46356;DHT22;32066;49.474;11.106;2023-08-08T14:41:03;22.00;68.00
46356;DHT22;32066;49.474;11.106;2023-08-08T14:43:35;22.00;68.30
46356;DHT22;32066;49.474;11.106;2023-08-08T14:46:04;22.00;68.10
46356;DHT22;32066;49.474;11.106;2023-08-08T14:48:32;21.90;68.10
46356;DHT22;32066;49.474;11.106;2023-08-08T14:51:02;21.90;69.00
46356;DHT22;32066;49.474;11.106;2023-08-08T14:53:31;21.90;68.50
46356;DHT22;32066;49.474;11.106;2023-08-08T14:55:59;21.90;69.60
46356;DHT22;32066;49.474;11.106;2023-08-08T14:58:28;21.90;69.60
46356;DHT22;32066;49.474;11.106;2023-08-08T15:00:59;21.90;70.70
46356;DHT22;32066;49.474;11.106;2023-08-08T15:03:28;22.00;69.50
46356;DHT22;32066;49.474;11.106;2023-08-08T15:05:56;21.90;68.40
46356;DHT22;32066;49.474;11.106;2023-08-08T15:08:25;21.70;69.70
46356;DHT22;32066;49.474;11.106;2023-08-08T15:10:54;21.80;69.20
46356;DHT22;32066;49.474;11.106;2023-08-08T15:13:23;21.70;65.90
46356;DHT22;32066;49.474;11.106;2023-08-08T15:15:51;21.60;66.80
46356;DHT22;32066;49.474;11.106;2023-08-08T15:18:23;21.60;67.50
46356;DHT22;32066;49.474;11.106;2023-08-08T15:20:52;21.60;67.30
46356;DHT22;32066;49.474;11.106;2023-08-08T15:23:20;21.60;66.40
46356;DHT22;32066;49.474;11.106;2023-08-08T15:25:49;21.50;66.00
46356;DHT22;32066;49.474;11.106;2023-08-08T15:28:18;21.50;67.30
46356;DHT22;32066;49.474;11.106;2023-08-08T15:30:46;21.50;66.90